Time;durP1;ratioP1;P1;durP2;ratioP2;P2;SDS_P1;SDS_P2;PMS_P1;PMS_P2;Temp;Humidity;BMP_temperature;BMP_pressure;BME280_temperature;BME280_humidity;BME280_pressure;Samples;Min_cycle;Max_cycle;Signal;HPM_P1;HPM_P2
2022/03/21 00:01:24;;;;;;;61.65;53.25;;;5.70;99.90;;;;;;5039593;28;20055;-59
2022/03/21 00:03:50;;;;;;;63.05;54.20;;;5.70;99.90;;;;;;5040003;28;20127;-59
2022/03/21 00:06:16;;;;;;;61.03;50.17;;;5.60;99.90;;;;;;5037991;28;20076;-59
2022/03/21 00:08:43;;;;;;;62.45;52.92;;;5.60;99.90;;;;;;5037639;28;20049;-59
2022/03/21 00:11:10;;;;;;;64.35;54.25;;;5.50;99.90;;;;;;5018932;28;20815;-59
2022/03/21 00:13:38;;;;;;;64.53;54.53;;;5.60;99.90;;;;;;5035538;28;20139;-59
2022/03/21 00:16:04;;;;;;;62.90;53.35;;;5.50;99.90;;;;;;5039312;28;20132;-59
2022/03/21 00:18:31;;;;;;;63.50;52.78;;;5.50;99.90;;;;;;5034336;28;20463;-59
2022/03/21 00:20:57;;;;;;;66.28;52.97;;;5.50;99.90;;;;;;5040667;28;20059;-59
2022/03/21 00:23:25;;;;;;;64.47;54.53;;;5.50;99.90;;;;;;5037718;28;20182;-59
2022/03/21 00:25:51;;;;;;;67.82;56.42;;;5.40;99.90;;;;;;5023793;28;20048;-59
2022/03/21 00:28:17;;;;;;;65.75;55.40;;;5.50;99.90;;;;;;5037190;28;20045;-59
2022/03/21 00:30:45;;;;;;;64.93;53.15;;;5.50;99.90;;;;;;5022784;28;20048;-59
2022/03/21 00:33:12;;;;;;;61.92;53.28;;;5.50;99.90;;;;;;5038882;28;20049;-58
2022/03/21 00:35:42;;;;;;;65.00;53.47;;;5.50;99.90;;;;;;5020658;28;20151;-57
2022/03/21 00:38:15;;;;;;;63.03;52.53;;;5.50;99.90;;;;;;5036806;28;20033;-58
2022/03/21 00:40:45;;;;;;;60.70;52.10;;;5.50;99.90;;;;;;5040819;28;20087;-58
2022/03/21 00:43:18;;;;;;;62.20;51.65;;;5.60;99.90;;;;;;5047631;28;20114;-58
2022/03/21 00:45:46;;;;;;;61.00;52.88;;;5.60;99.90;;;;;;5040305;28;20487;-59
2022/03/21 00:48:12;;;;;;;61.25;52.47;;;5.60;99.90;;;;;;5037941;28;20049;-59
2022/03/21 00:50:39;;;;;;;58.60;46.00;;;5.60;99.90;;;;;;5040674;28;20060;-59
2022/03/21 00:53:05;;;;;;;58.45;47.88;;;5.70;99.90;;;;;;5020794;28;20044;-59
2022/03/21 00:55:32;;;;;;;52.13;44.13;;;5.70;99.90;;;;;;5041937;28;20055;-59
2022/03/21 00:57:59;;;;;;;60.13;45.08;;;5.70;99.90;;;;;;5017680;28;20045;-59
2022/03/21 01:00:28;;;;;;;53.60;42.35;;;5.80;99.90;;;;;;5040799;28;21072;-59
2022/03/21 01:02:55;;;;;;;50.22;40.67;;;5.80;99.90;;;;;;5037232;28;20139;-59
2022/03/21 01:05:22;;;;;;;45.92;38.05;;;5.80;99.90;;;;;;5037685;28;20055;-59
2022/03/21 01:07:49;;;;;;;45.47;36.38;;;5.80;99.90;;;;;;5052359;28;20041;-59
2022/03/21 01:10:17;;;;;;;44.45;36.97;;;5.80;99.90;;;;;;5037301;28;20102;-58
2022/03/21 01:12:44;;;;;;;43.60;33.50;;;5.80;99.90;;;;;;5040380;28;20155;-58
2022/03/21 01:15:16;;;;;;;41.17;32.83;;;5.90;99.90;;;;;;5037341;28;20079;-59
2022/03/21 01:17:44;;;;;;;40.65;31.13;;;5.90;99.90;;;;;;5038551;28;20483;-58
2022/03/21 01:20:11;;;;;;;35.28;30.05;;;5.90;99.90;;;;;;5037591;28;20067;-59
2022/03/21 01:22:38;;;;;;;31.60;28.00;;;5.90;99.90;;;;;;5039959;28;20497;-58
2022/03/21 01:25:06;;;;;;;32.42;25.13;;;5.90;99.90;;;;;;5022146;28;20045;-58
2022/03/21 01:27:34;;;;;;;32.72;26.52;;;5.90;99.90;;;;;;5035088;28;20404;-57
2022/03/21 01:30:05;;;;;;;31.70;24.05;;;5.90;99.90;;;;;;5038482;28;20398;-58
2022/03/21 01:32:32;;;;;;;29.92;24.75;;;5.80;99.90;;;;;;5043065;28;20131;-58
2022/03/21 01:34:59;;;;;;;29.73;24.02;;;5.80;99.90;;;;;;5056301;28;20049;-58
2022/03/21 01:37:25;;;;;;;27.73;22.75;;;5.80;99.90;;;;;;5042330;28;20040;-59
2022/03/21 01:39:51;;;;;;;29.02;22.60;;;5.70;99.90;;;;;;5058166;28;20048;-59
2022/03/21 01:42:17;;;;;;;28.73;23.08;;;5.70;99.90;;;;;;5038843;28;20080;-59
2022/03/21 01:44:43;;;;;;;30.92;22.77;;;5.70;99.90;;;;;;5039326;28;20511;-59
2022/03/21 01:47:09;;;;;;;28.98;22.15;;;5.70;99.90;;;;;;5040997;28;20045;-59
2022/03/21 01:49:36;;;;;;;32.88;22.75;;;5.80;99.90;;;;;;5044175;28;20433;-60
2022/03/21 01:52:03;;;;;;;29.38;22.67;;;5.80;99.90;;;;;;5036986;28;20043;-59
2022/03/21 01:57:15;;;;;;;29.13;22.67;;;5.70;99.90;;;;;;5058125;28;20056;-59
2022/03/21 01:59:41;;;;;;;30.27;23.35;;;5.70;99.90;;;;;;5039314;28;20045;-59
2022/03/21 02:02:07;;;;;;;27.85;20.48;;;5.60;99.90;;;;;;5007685;28;20488;-59
2022/03/21 02:04:34;;;;;;;28.45;20.33;;;5.40;99.90;;;;;;5045422;28;20132;-59
2022/03/21 02:07:00;;;;;;;27.63;21.90;;;5.40;99.90;;;;;;5043799;28;20072;-61
2022/03/21 02:09:27;;;;;;;29.15;21.13;;;5.30;99.90;;;;;;5042194;28;20049;-60
2022/03/21 02:11:56;;;;;;;34.13;23.65;;;5.20;99.90;;;;;;5044940;28;20057;-58
2022/03/21 02:14:22;;;;;;;26.13;20.92;;;5.10;99.90;;;;;;5056138;28;20048;-57
2022/03/21 02:16:48;;;;;;;28.58;21.42;;;5.00;99.90;;;;;;5040145;28;20059;-59
2022/03/21 02:19:20;;;;;;;26.83;20.05;;;5.00;99.90;;;;;;5039703;28;20088;-58
2022/03/21 02:22:12;;;;;;;30.60;21.13;;;5.00;99.90;;;;;;5038357;28;20497;-59
2022/03/21 02:25:16;;;;;;;31.25;21.50;;;4.90;99.90;;;;;;5056281;28;20045;-58
2022/03/21 02:27:43;;;;;;;27.45;20.60;;;4.80;99.90;;;;;;5022766;28;20119;-60
2022/03/21 02:30:10;;;;;;;29.05;20.63;;;4.80;99.90;;;;;;5055546;28;20386;-59
2022/03/21 02:32:37;;;;;;;31.83;20.85;;;4.70;99.90;;;;;;5020746;28;20052;-59
2022/03/21 02:35:04;;;;;;;29.33;21.58;;;4.60;99.90;;;;;;5041063;28;20045;-59
2022/03/21 02:37:31;;;;;;;26.90;20.58;;;4.60;99.90;;;;;;5042376;28;20044;-59
2022/03/21 02:39:58;;;;;;;31.98;20.50;;;4.60;99.90;;;;;;5041907;28;20114;-58
2022/03/21 02:42:24;;;;;;;26.73;20.25;;;4.50;99.90;;;;;;5052066;28;20084;-58
2022/03/21 02:44:50;;;;;;;27.08;20.15;;;4.50;99.90;;;;;;5040569;28;20045;-58
2022/03/21 02:47:16;;;;;;;30.63;21.35;;;4.30;99.90;;;;;;5053455;28;20412;-58
2022/03/21 02:49:43;;;;;;;24.60;18.90;;;4.30;99.90;;;;;;5020116;28;20460;-58
2022/03/21 02:52:11;;;;;;;25.40;18.75;;;4.30;99.90;;;;;;5040991;28;20841;-58
2022/03/21 02:54:37;;;;;;;26.55;19.85;;;4.20;99.90;;;;;;5041180;28;20055;-58
2022/03/21 02:57:03;;;;;;;29.27;20.17;;;4.20;99.90;;;;;;5039252;28;20749;-58
2022/03/21 02:59:29;;;;;;;26.13;20.20;;;4.20;99.90;;;;;;5039137;28;20053;-58
2022/03/21 03:01:55;;;;;;;29.75;21.30;;;4.20;99.90;;;;;;5040818;28;20076;-57
2022/03/21 03:04:23;;;;;;;32.05;21.30;;;4.20;99.90;;;;;;5040334;28;20459;-58
2022/03/21 03:06:49;;;;;;;26.75;20.63;;;4.10;99.90;;;;;;5009335;28;20484;-59
2022/03/21 03:09:15;;;;;;;31.30;22.40;;;4.10;99.90;;;;;;5039589;28;20056;-58
2022/03/21 03:11:41;;;;;;;30.38;22.45;;;4.00;99.90;;;;;;5040775;28;20060;-58
2022/03/21 03:14:08;;;;;;;29.48;22.10;;;4.00;99.90;;;;;;5041021;28;20135;-59
2022/03/21 03:16:35;;;;;;;25.60;19.55;;;4.00;99.90;;;;;;5042427;28;20048;-59
2022/03/21 03:19:01;;;;;;;28.15;19.67;;;3.90;99.90;;;;;;5036629;28;20475;-59
2022/03/21 03:21:36;;;;;;;30.08;19.65;;;3.90;99.90;;;;;;5035121;28;20041;-59
2022/03/21 03:24:03;;;;;;;26.30;18.38;;;3.80;99.90;;;;;;5040396;28;20507;-58
2022/03/21 03:26:29;;;;;;;24.50;18.17;;;3.70;99.90;;;;;;5054899;28;20386;-58
2022/03/21 03:28:55;;;;;;;24.52;19.58;;;3.60;99.90;;;;;;5055993;28;20056;-59
2022/03/21 03:31:21;;;;;;;24.25;19.27;;;3.50;99.90;;;;;;5040501;28;20567;-59
2022/03/21 03:33:48;;;;;;;26.27;18.55;;;3.40;99.90;;;;;;5039628;28;20045;-59
2022/03/21 03:36:15;;;;;;;25.83;18.38;;;3.30;99.90;;;;;;5040187;28;20547;-58
2022/03/21 03:38:45;;;;;;;26.20;18.88;;;3.30;99.90;;;;;;5039528;28;20548;-59
2022/03/21 03:41:12;;;;;;;27.08;19.80;;;3.20;99.90;;;;;;5035641;28;20052;-58
2022/03/21 03:43:39;;;;;;;24.75;18.85;;;3.20;99.90;;;;;;5038228;28;20557;-59
2022/03/21 03:46:05;;;;;;;22.50;19.45;;;3.10;99.90;;;;;;5038175;28;20220;-59
2022/03/21 03:48:31;;;;;;;24.73;19.20;;;3.10;99.90;;;;;;5040030;28;20076;-59
2022/03/21 03:50:57;;;;;;;23.63;17.50;;;3.00;99.90;;;;;;5040618;28;20561;-59
2022/03/21 03:53:24;;;;;;;23.63;17.42;;;2.90;99.90;;;;;;5039079;28;20053;-59
2022/03/21 03:55:50;;;;;;;25.52;18.63;;;2.90;99.90;;;;;;5023523;28;20561;-58
2022/03/21 03:58:16;;;;;;;23.92;18.17;;;2.80;99.90;;;;;;5039483;28;20126;-58
2022/03/21 04:00:44;;;;;;;24.23;17.48;;;2.80;99.90;;;;;;5053657;28;20898;-58
2022/03/21 04:05:55;;;;;;;22.98;17.85;;;2.70;99.90;;;;;;5038831;28;20059;-58
2022/03/21 04:08:21;;;;;;;25.23;18.85;;;2.60;99.90;;;;;;5039354;28;20048;-58
2022/03/21 04:10:48;;;;;;;27.88;19.08;;;2.60;99.90;;;;;;5041842;28;20087;-58
2022/03/21 04:13:14;;;;;;;24.65;18.55;;;2.60;99.90;;;;;;5037259;28;20052;-58
2022/03/21 04:15:40;;;;;;;22.60;17.60;;;2.50;99.90;;;;;;5038774;28;20044;-58
2022/03/21 04:18:06;;;;;;;28.13;18.20;;;2.50;99.90;;;;;;5041836;28;20041;-58
2022/03/21 04:20:33;;;;;;;25.15;18.17;;;2.50;99.90;;;;;;5040856;28;20128;-58
2022/03/21 04:23:00;;;;;;;24.60;18.08;;;2.50;99.90;;;;;;5020909;28;20265;-58
2022/03/21 04:25:27;;;;;;;23.90;17.08;;;2.40;99.90;;;;;;5039739;28;20106;-58
2022/03/21 04:27:53;;;;;;;27.45;18.83;;;2.40;99.90;;;;;;5003011;28;20071;-58
2022/03/21 04:30:20;;;;;;;24.42;18.77;;;2.40;99.90;;;;;;5039954;28;20057;-59
2022/03/21 04:32:46;;;;;;;29.67;18.77;;;2.30;99.90;;;;;;5039654;28;20044;-60
2022/03/21 04:35:12;;;;;;;25.00;18.40;;;2.30;99.90;;;;;;5036532;28;20459;-59
2022/03/21 04:37:39;;;;;;;27.20;20.08;;;2.30;99.90;;;;;;5034667;28;20051;-59
2022/03/21 04:40:07;;;;;;;25.88;19.80;;;2.30;99.90;;;;;;5022897;28;20523;-59
2022/03/21 04:42:35;;;;;;;25.52;19.67;;;2.20;99.90;;;;;;5037143;28;20057;-58
2022/03/21 04:45:02;;;;;;;23.13;18.10;;;2.20;99.90;;;;;;5038598;28;20037;-59
2022/03/21 04:47:28;;;;;;;26.58;18.77;;;2.10;99.90;;;;;;5036226;28;20049;-58
2022/03/21 04:49:55;;;;;;;23.80;18.27;;;2.10;99.90;;;;;;5037220;28;20041;-59
2022/03/21 04:52:21;;;;;;;27.98;20.77;;;2.10;99.90;;;;;;5019295;28;20464;-58
2022/03/21 04:54:48;;;;;;;26.13;18.30;;;2.10;99.90;;;;;;5022976;28;20048;-58
2022/03/21 04:57:14;;;;;;;27.77;19.60;;;2.10;99.90;;;;;;5038500;28;20087;-58
2022/03/21 04:59:40;;;;;;;23.52;18.45;;;2.00;99.90;;;;;;5035903;28;20053;-58
2022/03/21 05:02:06;;;;;;;30.42;19.98;;;2.00;99.90;;;;;;5038861;28;20048;-59
2022/03/21 05:04:34;;;;;;;24.13;18.75;;;2.00;99.90;;;;;;5050916;28;20528;-59
2022/03/21 05:07:00;;;;;;;27.33;19.60;;;2.00;99.90;;;;;;5036757;28;20041;-59
2022/03/21 05:09:26;;;;;;;28.73;20.85;;;2.00;99.90;;;;;;5036097;28;20440;-59
2022/03/21 05:11:53;;;;;;;29.65;20.88;;;2.00;99.90;;;;;;5030891;28;20057;-59
2022/03/21 05:14:19;;;;;;;28.05;19.23;;;2.00;99.90;;;;;;5038200;28;20120;-58
2022/03/21 05:16:49;;;;;;;28.83;20.98;;;1.90;99.90;;;;;;5039189;28;20037;-58
2022/03/21 05:19:15;;;;;;;30.48;22.98;;;1.90;99.90;;;;;;5037518;28;20088;-58
2022/03/21 05:21:42;;;;;;;29.58;20.98;;;2.00;99.90;;;;;;5039041;28;20520;-59
2022/03/21 05:32:23;;;;;;;29.17;21.75;;;1.90;99.90;;;;;;5037468;28;20052;-59
2022/03/21 05:37:34;;;;;;;30.35;20.23;;;1.90;99.90;;;;;;5036756;28;20107;-58
2022/03/21 05:42:45;;;;;;;24.50;18.67;;;1.80;99.90;;;;;;5035280;28;20053;-58
2022/03/21 05:45:12;;;;;;;24.40;18.17;;;1.70;99.90;;;;;;5036143;28;20257;-58
2022/03/21 05:48:50;;;;;;;24.40;18.30;;;1.80;99.90;;;;;;5017383;28;20053;-58
2022/03/21 05:50:25;;;;;;;23.33;18.27;;;1.80;99.90;;;;;;5033930;28;20103;-59
2022/03/21 05:52:51;;;;;;;26.42;17.88;;;1.80;99.90;;;;;;5051881;28;20049;-58
2022/03/21 05:55:17;;;;;;;22.65;18.67;;;1.80;99.90;;;;;;5036362;28;20049;-58
2022/03/21 05:57:43;;;;;;;22.40;16.85;;;1.80;99.90;;;;;;5039190;28;20572;-58
2022/03/21 06:00:22;;;;;;;23.88;17.10;;;1.80;99.90;;;;;;5038921;28;20543;-59
2022/03/21 06:02:50;;;;;;;21.48;16.67;;;1.80;99.90;;;;;;5038361;28;20041;-58
2022/03/21 06:05:16;;;;;;;21.15;16.08;;;1.80;99.90;;;;;;5039985;28;20040;-58
2022/03/21 06:07:42;;;;;;;20.88;15.25;;;1.80;99.90;;;;;;5016984;28;20063;-59
2022/03/21 06:10:08;;;;;;;23.65;16.48;;;1.80;99.90;;;;;;5037814;28;20535;-59
2022/03/21 06:12:35;;;;;;;21.52;16.90;;;1.90;99.90;;;;;;5051029;28;20523;-60
2022/03/21 06:15:01;;;;;;;21.85;16.20;;;1.90;99.90;;;;;;5038857;28;20083;-59
2022/03/21 06:17:27;;;;;;;21.17;16.48;;;1.90;99.90;;;;;;5022999;28;20434;-58
2022/03/21 06:19:53;;;;;;;21.48;15.35;;;1.90;99.90;;;;;;5036340;28;20817;-59
2022/03/21 06:22:19;;;;;;;16.92;13.93;;;1.90;99.90;;;;;;5034413;28;20474;-59
2022/03/21 06:24:46;;;;;;;16.98;14.00;;;1.90;99.90;;;;;;5042229;28;20881;-61
2022/03/21 06:27:12;;;;;;;16.40;13.95;;;2.00;99.90;;;;;;5040647;28;20052;-59
2022/03/21 06:29:41;;;;;;;18.92;14.48;;;2.10;99.90;;;;;;4992738;28;20045;-59
2022/03/21 06:32:08;;;;;;;17.15;13.85;;;2.20;99.90;;;;;;5041778;28;20051;-59
2022/03/21 06:34:34;;;;;;;16.75;14.88;;;2.20;99.90;;;;;;5040811;28;20056;-59
2022/03/21 06:37:02;;;;;;;16.75;14.43;;;2.40;99.90;;;;;;5042020;28;20053;-59
2022/03/21 06:39:28;;;;;;;20.92;15.63;;;2.50;99.90;;;;;;5042720;28;20084;-59
2022/03/21 06:41:54;;;;;;;19.05;15.50;;;2.50;99.90;;;;;;5053529;28;20051;-60
2022/03/21 06:44:21;;;;;;;18.92;15.95;;;2.60;99.90;;;;;;5041702;28;20048;-59
2022/03/21 06:46:47;;;;;;;16.98;14.68;;;2.70;99.90;;;;;;5021809;28;20048;-59
2022/03/21 06:49:13;;;;;;;19.92;15.68;;;2.70;99.90;;;;;;5041809;28;20117;-59
2022/03/21 06:51:39;;;;;;;21.33;17.65;;;2.90;99.90;;;;;;5041772;28;20064;-59
2022/03/21 06:54:05;;;;;;;20.83;16.83;;;3.00;99.90;;;;;;5037553;28;20409;-59
2022/03/21 06:56:31;;;;;;;19.95;16.38;;;3.10;99.90;;;;;;5022218;28;20492;-60
2022/03/21 06:58:57;;;;;;;24.08;19.55;;;3.20;99.90;;;;;;5046334;28;20401;-60
2022/03/21 07:01:25;;;;;;;23.40;20.25;;;3.30;99.90;;;;;;5043450;28;20239;-59
2022/03/21 07:03:51;;;;;;;26.10;19.80;;;3.60;99.90;;;;;;5030664;28;20053;-60
2022/03/21 07:06:19;;;;;;;24.08;17.55;;;4.00;99.90;;;;;;5037550;28;20051;-60
2022/03/21 07:08:51;;;;;;;24.50;20.45;;;4.40;99.90;;;;;;5037665;28;20040;-60
2022/03/21 07:11:19;;;;;;;29.35;21.73;;;4.70;99.90;;;;;;5045512;28;20054;-59
2022/03/21 07:13:46;;;;;;;23.48;18.52;;;5.30;99.90;;;;;;5023050;28;20447;-60
2022/03/21 07:16:16;;;;;;;25.40;19.40;;;5.70;99.90;;;;;;5038031;28;20495;-66
2022/03/21 07:18:47;;;;;;;20.90;17.63;;;6.20;99.90;;;;;;5042730;28;20132;-60
2022/03/21 07:21:15;;;;;;;24.55;17.45;;;6.70;99.90;;;;;;5058642;28;20037;-61
2022/03/21 07:23:41;;;;;;;18.95;16.92;;;7.20;99.90;;;;;;5050222;28;20123;-60
2022/03/21 07:26:07;;;;;;;19.83;16.67;;;7.50;99.90;;;;;;5036605;28;20037;-61
2022/03/21 07:28:33;;;;;;;22.45;18.67;;;8.10;99.90;;;;;;5040146;28;20339;-59
2022/03/21 07:30:59;;;;;;;22.80;17.70;;;8.50;99.90;;;;;;5041891;28;20552;-61
2022/03/21 07:33:25;;;;;;;18.83;16.77;;;9.00;99.90;;;;;;5038166;28;20135;-62
2022/03/21 07:35:51;;;;;;;21.63;17.85;;;9.30;99.90;;;;;;5053077;28;20930;-61
2022/03/21 07:38:22;;;;;;;21.10;15.82;;;9.60;99.90;;;;;;5046493;28;20103;-60
2022/03/21 07:40:49;;;;;;;18.05;16.15;;;10.00;99.90;;;;;;5057800;28;20053;-61
2022/03/21 07:43:16;;;;;;;18.40;16.25;;;10.30;99.90;;;;;;5039919;28;20052;-61
2022/03/21 07:48:27;;;;;;;19.23;16.05;;;10.90;99.90;;;;;;5035456;28;20049;-58
2022/03/21 07:50:54;;;;;;;20.50;15.38;;;10.90;99.90;;;;;;5038707;28;20539;-58
2022/03/21 07:53:20;;;;;;;19.98;15.80;;;11.20;99.90;;;;;;5037741;28;20573;-57
2022/03/21 07:55:47;;;;;;;19.45;15.65;;;11.80;99.90;;;;;;5039600;28;20049;-58
2022/03/21 07:58:13;;;;;;;18.40;15.93;;;12.00;99.90;;;;;;5039589;28;20041;-57
2022/03/21 08:00:43;;;;;;;20.77;15.88;;;12.20;99.90;;;;;;5040924;28;20523;-57
2022/03/21 08:03:14;;;;;;;18.88;15.93;;;12.60;99.90;;;;;;5038507;28;20052;-61
2022/03/21 08:05:41;;;;;;;16.92;14.85;;;12.90;99.90;;;;;;5041217;28;20120;-62
2022/03/21 08:08:08;;;;;;;18.60;15.52;;;12.90;99.90;;;;;;5040136;28;20048;-62
2022/03/21 08:10:35;;;;;;;16.95;15.25;;;13.00;99.90;;;;;;5037215;28;20558;-57
2022/03/21 08:13:01;;;;;;;18.25;16.15;;;12.90;99.90;;;;;;5057462;28;20053;-58
2022/03/21 08:15:27;;;;;;;16.75;14.98;;;13.50;99.90;;;;;;5038511;28;20140;-58
2022/03/21 08:18:00;;;;;;;17.27;14.63;;;13.70;99.90;;;;;;5021231;28;20095;-57
2022/03/21 08:20:39;;;;;;;19.38;14.98;;;14.00;99.90;;;;;;5035762;28;20059;-58
2022/03/21 08:23:08;;;;;;;19.98;14.60;;;14.20;99.90;;;;;;5036901;28;20456;-57
2022/03/21 08:25:39;;;;;;;16.63;14.93;;;14.30;99.90;;;;;;5039822;28;20367;-61
2022/03/21 08:28:06;;;;;;;17.52;14.95;;;14.60;99.90;;;;;;5037560;28;20571;-62
2022/03/21 08:30:35;;;;;;;18.05;14.63;;;15.00;99.90;;;;;;5034636;28;20071;-61
2022/03/21 08:33:10;;;;;;;18.77;15.30;;;15.50;99.90;;;;;;5019804;28;20379;-61
2022/03/21 08:35:38;;;;;;;16.63;14.45;;;15.50;99.90;;;;;;5038318;28;20092;-61
2022/03/21 08:38:07;;;;;;;16.08;13.70;;;15.30;99.90;;;;;;5038689;28;20040;-62
2022/03/21 08:40:35;;;;;;;15.98;13.82;;;15.70;99.90;;;;;;5040349;28;20049;-61
2022/03/21 08:43:01;;;;;;;16.63;14.15;;;15.60;99.90;;;;;;5010068;28;20414;-61
2022/03/21 08:45:27;;;;;;;17.33;13.35;;;15.90;99.90;;;;;;5023972;28;20057;-62
2022/03/21 08:47:53;;;;;;;18.92;14.00;;;16.30;99.90;;;;;;5039967;28;20041;-61
2022/03/21 08:50:20;;;;;;;16.63;14.07;;;16.60;99.90;;;;;;5057734;28;20140;-61
2022/03/21 08:52:47;;;;;;;15.25;13.73;;;16.80;99.90;;;;;;5039533;28;20445;-61
2022/03/21 08:55:14;;;;;;;17.80;14.40;;;16.90;83.70;;;;;;5039786;28;20045;-62
2022/03/21 08:57:40;;;;;;;17.92;14.63;;;16.90;77.40;;;;;;5038414;28;20048;-61
2022/03/21 09:00:08;;;;;;;16.38;14.00;;;17.00;69.60;;;;;;5023954;28;20320;-61
2022/03/21 09:02:36;;;;;;;16.33;14.35;;;17.10;65.00;;;;;;5058492;28;20052;-62
2022/03/21 09:05:06;;;;;;;17.70;14.05;;;17.40;60.70;;;;;;5042027;28;20504;-61
2022/03/21 09:07:32;;;;;;;16.08;14.38;;;17.30;62.80;;;;;;5042154;28;20095;-61
2022/03/21 09:09:58;;;;;;;17.50;14.70;;;17.60;61.70;;;;;;5039193;28;20099;-61
2022/03/21 09:12:24;;;;;;;14.60;13.05;;;17.90;59.70;;;;;;5021701;28;20051;-62
2022/03/21 09:14:50;;;;;;;16.67;14.85;;;18.00;58.70;;;;;;5024226;28;20680;-62
2022/03/21 09:17:16;;;;;;;17.90;13.45;;;18.10;57.70;;;;;;5023070;28;20059;-62
2022/03/21 09:19:43;;;;;;;17.42;14.25;;;18.50;57.70;;;;;;5024159;28;20049;-61
2022/03/21 09:22:10;;;;;;;19.02;15.02;;;18.70;55.10;;;;;;5055019;28;20050;-62
2022/03/21 09:24:36;;;;;;;17.10;15.15;;;18.50;54.20;;;;;;5022464;28;20056;-62
2022/03/21 09:27:02;;;;;;;18.40;14.63;;;18.70;53.90;;;;;;5037862;28;20158;-61
2022/03/21 09:29:28;;;;;;;16.25;14.55;;;19.00;53.50;;;;;;5036866;28;20526;-62
2022/03/21 09:31:55;;;;;;;27.35;22.25;;;19.00;52.00;;;;;;5040007;28;20064;-60
2022/03/21 09:34:21;;;;;;;24.52;22.10;;;19.40;51.10;;;;;;5038735;28;20041;-64
2022/03/21 09:36:48;;;;;;;17.08;14.73;;;19.40;51.50;;;;;;5040502;28;20590;-62
2022/03/21 09:39:14;;;;;;;17.73;15.55;;;19.20;50.50;;;;;;5039568;28;20064;-62
2022/03/21 09:41:41;;;;;;;18.35;14.30;;;18.90;51.10;;;;;;5037600;28;20171;-62
2022/03/21 09:44:11;;;;;;;19.33;16.33;;;19.70;49.60;;;;;;5042192;28;20149;-62
2022/03/21 09:46:43;;;;;;;18.40;16.33;;;19.60;49.70;;;;;;5040076;28;20083;-62
2022/03/21 09:49:11;;;;;;;22.55;17.25;;;20.20;49.00;;;;;;5038464;28;20134;-62
2022/03/21 09:51:39;;;;;;;20.90;18.73;;;20.20;48.00;;;;;;5044354;28;20049;-61
2022/03/21 09:54:05;;;;;;;21.80;19.13;;;20.00;46.80;;;;;;5041748;28;20476;-62
2022/03/21 09:56:32;;;;;;;23.60;21.30;;;20.30;47.10;;;;;;5041904;28;20262;-60
2022/03/21 09:59:00;;;;;;;28.95;25.95;;;20.10;46.80;;;;;;5038440;28;20432;-60
2022/03/21 10:01:30;;;;;;;23.67;21.33;;;19.70;47.60;;;;;;5042125;28;20070;-60
2022/03/21 10:03:58;;;;;;;24.10;21.42;;;20.40;47.70;;;;;;5043779;28;20037;-61
2022/03/21 10:06:27;;;;;;;34.80;31.02;;;20.70;46.60;;;;;;5043959;28;20396;-64
2022/03/21 10:09:15;;;;;;;30.90;27.75;;;20.20;46.90;;;;;;5042312;28;20056;-62
2022/03/21 10:11:55;;;;;;;23.38;20.92;;;20.70;43.70;;;;;;5040357;28;20179;-61
2022/03/21 10:14:32;;;;;;;29.83;25.95;;;21.20;43.90;;;;;;5058145;28;20045;-60
2022/03/21 10:17:03;;;;;;;26.75;23.83;;;20.90;44.10;;;;;;5044621;28;20049;-63
2022/03/21 10:19:46;;;;;;;25.75;23.00;;;21.30;44.50;;;;;;5043009;28;20045;-60
2022/03/21 10:22:16;;;;;;;23.85;21.45;;;21.80;42.70;;;;;;5039608;28;20370;-60
2022/03/21 10:24:52;;;;;;;25.85;23.08;;;22.00;43.30;;;;;;5044248;28;20045;-60
2022/03/21 10:27:39;;;;;;;24.30;20.52;;;22.00;42.30;;;;;;5041787;28;20082;-61
2022/03/21 10:30:13;;;;;;;23.80;20.10;;;21.50;41.10;;;;;;5058237;28;20337;-61
2022/03/21 10:32:46;;;;;;;24.88;22.48;;;22.20;41.50;;;;;;5058743;28;20065;-60
2022/03/21 10:35:22;;;;;;;22.50;20.05;;;22.40;40.30;;;;;;5043418;28;20049;-63
2022/03/21 10:37:53;;;;;;;25.27;22.65;;;21.50;41.70;;;;;;5041877;28;20044;-63
2022/03/21 10:40:23;;;;;;;;;;;22.20;41.50;;;;;;5026078;28;20053;-60
2022/03/21 10:43:18;;;;;;;21.83;19.48;;;21.90;40.80;;;;;;5041338;28;19994;-60
2022/03/21 10:45:52;;;;;;;22.70;20.27;;;22.60;41.70;;;;;;5041825;28;20067;-61
2022/03/21 10:48:30;;;;;;;21.60;19.45;;;22.70;40.70;;;;;;5041973;28;20382;-60
2022/03/21 10:50:58;;;;;;;21.90;19.50;;;22.20;41.80;;;;;;5041378;28;20044;-60
2022/03/21 10:53:25;;;;;;;23.27;18.08;;;22.20;41.50;;;;;;5044301;28;20115;-60
2022/03/21 10:56:02;;;;;;;21.55;19.10;;;22.20;40.90;;;;;;5044342;28;20052;-61
2022/03/21 10:58:40;;;;;;;23.58;20.70;;;21.60;40.30;;;;;;5040774;28;20245;-61
2022/03/21 11:01:29;;;;;;;21.90;19.75;;;22.10;41.40;;;;;;5026188;28;20429;-60
2022/03/21 11:03:59;;;;;;;23.35;19.25;;;22.80;40.30;;;;;;5040446;28;20075;-60
2022/03/21 11:06:29;;;;;;;20.77;18.70;;;22.60;41.30;;;;;;5024303;28;20133;-60
2022/03/21 11:08:57;;;;;;;23.98;19.80;;;23.50;39.80;;;;;;5024822;28;20522;-60
2022/03/21 11:11:23;;;;;;;22.52;20.20;;;23.10;39.10;;;;;;5041584;28;20041;-60
2022/03/21 11:13:53;;;;;;;23.23;20.30;;;22.70;41.60;;;;;;5042372;28;20080;-60
2022/03/21 11:16:20;;;;;;;24.67;19.73;;;23.50;39.60;;;;;;5041666;28;20634;-60
2022/03/21 11:18:47;;;;;;;21.48;19.27;;;23.90;38.60;;;;;;5041956;28;20075;-59
2022/03/21 11:21:13;;;;;;;22.65;19.33;;;22.80;39.30;;;;;;5040644;28;20049;-58
2022/03/21 11:23:40;;;;;;;21.52;19.27;;;22.60;39.20;;;;;;5038545;28;20470;-59
2022/03/21 11:26:12;;;;;;;22.42;20.02;;;22.80;38.40;;;;;;5004969;28;20139;-64
2022/03/21 11:29:07;;;;;;;26.08;18.58;;;23.20;38.70;;;;;;5040439;28;20618;-58
2022/03/21 11:31:54;;;;;;;22.13;19.67;;;23.50;36.70;;;;;;5040797;28;20390;-63
2022/03/21 11:34:39;;;;;;;24.77;19.50;;;23.00;37.70;;;;;;5038512;28;20442;-59
2022/03/21 11:37:05;;;;;;;26.92;19.52;;;22.70;37.80;;;;;;5039541;28;20071;-64
2022/03/21 11:39:33;;;;;;;22.10;18.90;;;22.40;38.30;;;;;;5040630;28;20065;-63
2022/03/21 11:41:59;;;;;;;21.17;18.80;;;22.40;38.40;;;;;;5037987;28;20045;-64
2022/03/21 11:44:26;;;;;;;23.60;19.88;;;22.80;37.90;;;;;;5037505;28;20272;-63
2022/03/21 11:46:52;;;;;;;24.52;19.50;;;22.90;38.30;;;;;;5039753;28;20130;-61
2022/03/21 11:49:18;;;;;;;22.55;19.65;;;22.60;38.60;;;;;;5038395;28;20437;-61
2022/03/21 11:51:53;;;;;;;22.33;19.73;;;22.20;38.50;;;;;;5039006;28;20044;-63
2022/03/21 11:54:29;;;;;;;24.35;20.40;;;22.70;38.70;;;;;;5040924;28;20049;-63
2022/03/21 11:57:01;;;;;;;22.90;19.75;;;22.80;37.90;;;;;;5007219;28;20131;-63
2022/03/21 11:59:33;;;;;;;24.25;20.00;;;22.40;38.50;;;;;;5036882;28;20057;-63
2022/03/21 12:02:25;;;;;;;23.55;20.83;;;22.30;39.00;;;;;;5041249;28;20044;-63
2022/03/21 12:05:03;;;;;;;23.60;20.08;;;23.00;36.90;;;;;;5040016;28;20126;-63
2022/03/21 12:07:31;;;;;;;22.17;19.80;;;23.30;36.80;;;;;;5039309;28;20044;-64
2022/03/21 12:09:57;;;;;;;25.45;21.17;;;23.50;37.30;;;;;;5039511;28;20072;-63
2022/03/21 12:12:51;;;;;;;22.95;20.45;;;23.60;37.00;;;;;;5041156;28;20155;-63
2022/03/21 12:15:31;;;;;;;25.77;21.33;;;23.50;36.20;;;;;;5021909;28;20057;-63
2022/03/21 12:17:58;;;;;;;23.58;20.30;;;22.80;36.40;;;;;;5039022;28;20052;-63
2022/03/21 12:20:24;;;;;;;23.95;19.33;;;23.50;37.00;;;;;;5055523;28;20053;-63
2022/03/21 12:22:52;;;;;;;25.15;20.30;;;24.10;35.30;;;;;;5055474;28;20099;-64
2022/03/21 12:25:28;;;;;;;24.65;19.83;;;23.50;35.90;;;;;;5040984;28;20140;-63
2022/03/21 12:27:59;;;;;;;25.23;20.15;;;24.20;34.80;;;;;;5055227;28;20053;-65
2022/03/21 12:30:31;;;;;;;23.48;19.55;;;24.60;35.20;;;;;;5053114;28;20057;-64
2022/03/21 12:33:23;;;;;;;23.30;20.45;;;23.80;36.00;;;;;;5035847;28;20047;-64
2022/03/21 12:35:49;;;;;;;;;;;24.20;35.50;;;;;;5034412;28;20044;-61
2022/03/21 12:38:21;;;;;;;25.52;20.52;;;23.70;35.20;;;;;;5041869;28;20458;-61
2022/03/21 12:40:47;;;;;;;22.77;19.25;;;23.80;36.10;;;;;;5038216;28;20040;-61
2022/03/21 12:43:15;;;;;;;22.45;20.05;;;24.10;35.90;;;;;;5037760;28;20052;-62
2022/03/21 12:45:44;;;;;;;22.38;20.08;;;24.90;34.90;;;;;;5037981;28;20045;-62
2022/03/21 12:48:13;;;;;;;23.13;20.25;;;24.90;34.50;;;;;;5051146;28;20088;-61
2022/03/21 12:50:40;;;;;;;24.70;19.85;;;24.20;34.80;;;;;;5049606;28;20049;-62
2022/03/21 12:53:08;;;;;;;23.23;19.10;;;24.00;35.60;;;;;;5038915;28;20511;-62
2022/03/21 12:55:35;;;;;;;23.45;20.20;;;24.10;35.80;;;;;;5039072;28;20080;-61
2022/03/21 12:58:05;;;;;;;20.77;18.65;;;23.90;35.40;;;;;;5040037;28;20087;-56
2022/03/21 13:00:34;;;;;;;21.73;19.52;;;24.00;35.60;;;;;;5038507;28;20037;-60
2022/03/21 13:03:08;;;;;;;26.25;23.20;;;24.10;35.50;;;;;;5039681;28;20041;-62